createdAt,value
2023-02-11T00:01:45.268Z,80.01
2023-02-11T00:04:13.361Z,80.23
2023-02-11T00:06:40.721Z,79.26
2023-02-11T00:09:08.538Z,80.15
2023-02-11T00:11:36.099Z,80.24
2023-02-11T00:14:08.929Z,80.16
2023-02-11T00:16:36.538Z,79.75
2023-02-11T00:19:06.509Z,80.54
2023-02-11T00:21:35.666Z,81.12
2023-02-11T00:24:03.491Z,78.29
2023-02-11T00:26:35.728Z,80.33
2023-02-11T00:29:05.926Z,77.62
2023-02-11T00:31:34.216Z,77.91
2023-02-11T00:34:02.195Z,78.04
2023-02-11T00:36:29.999Z,79.99
2023-02-11T00:38:58.728Z,77.90
2023-02-11T00:41:26.367Z,78.76
2023-02-11T00:43:54.410Z,77.77
2023-02-11T00:46:21.977Z,77.34
2023-02-11T00:48:51.925Z,76.18
2023-02-11T00:51:22.637Z,77.67
2023-02-11T00:53:51.369Z,78.78
2023-02-11T00:56:18.922Z,78.46
2023-02-11T00:58:46.583Z,78.99
2023-02-11T01:01:14.332Z,77.82
2023-02-11T01:03:43.886Z,78.14
2023-02-11T01:06:13.087Z,79.21
2023-02-11T01:08:41.093Z,78.64
2023-02-11T01:11:15.623Z,78.59
2023-02-11T01:13:47.356Z,78.75
2023-02-11T01:16:16.701Z,79.20
2023-02-11T01:18:47.832Z,79.14
2023-02-11T01:21:18.855Z,78.26
2023-02-11T01:23:46.728Z,78.66
2023-02-11T01:26:15.431Z,79.23
2023-02-11T01:28:43.138Z,79.25
2023-02-11T01:31:11.787Z,78.98
2023-02-11T01:33:40.237Z,80.61
2023-02-11T01:36:12.605Z,80.00
2023-02-11T01:38:41.365Z,79.90
2023-02-11T01:41:15.037Z,80.51
2023-02-11T01:43:47.063Z,79.61
2023-02-11T01:46:37.246Z,80.06
2023-02-11T01:49:10.224Z,80.05
2023-02-11T01:51:44.352Z,79.38
2023-02-11T01:54:35.297Z,79.83
2023-02-11T01:57:22.942Z,79.45
2023-02-11T02:00:20.604Z,81.14
2023-02-11T02:02:58.242Z,82.80
2023-02-11T02:05:58.424Z,83.29
2023-02-11T02:08:51.216Z,82.16
2023-02-11T02:11:20.502Z,80.21
2023-02-11T02:13:48.059Z,81.23
2023-02-11T02:16:19.923Z,79.90
2023-02-11T02:18:59.615Z,79.31
2023-02-11T02:21:45.466Z,79.58
2023-02-11T02:24:34.301Z,79.76
2023-02-11T02:27:25.610Z,80.36
2023-02-11T02:30:17.645Z,79.48
2023-02-11T02:33:21.438Z,80.49
2023-02-11T02:36:15.035Z,80.38
2023-02-11T02:39:01.347Z,81.05
2023-02-11T02:41:34.865Z,80.65
2023-02-11T02:44:03.647Z,80.24
2023-02-11T02:46:34.857Z,81.05
2023-02-11T02:49:02.882Z,80.74
2023-02-11T02:51:45.269Z,81.15
2023-02-11T02:54:28.082Z,82.59
2023-02-11T02:57:28.092Z,82.83
2023-02-11T03:00:01.750Z,80.82
2023-02-11T03:02:42.857Z,80.76
2023-02-11T03:05:16.697Z,81.31
2023-02-11T03:08:10.855Z,80.69
2023-02-11T03:10:52.905Z,81.22
2023-02-11T03:13:25.552Z,81.87
2023-02-11T03:15:57.462Z,81.22
2023-02-11T03:18:29.451Z,81.73
2023-02-11T03:20:58.873Z,80.77
2023-02-11T03:23:32.723Z,82.55
2023-02-11T03:26:11.865Z,81.26
2023-02-11T03:28:57.364Z,80.54
2023-02-11T03:31:29.489Z,81.50
2023-02-11T03:34:12.882Z,81.24
2023-02-11T03:36:46.229Z,81.30
2023-02-11T03:39:29.696Z,81.36
2023-02-11T03:41:59.931Z,82.26
2023-02-11T03:44:35.111Z,82.46
2023-02-11T03:47:05.990Z,82.29
2023-02-11T03:49:36.388Z,82.91
2023-02-11T03:52:06.898Z,82.80
2023-02-11T03:54:36.091Z,82.72
2023-02-11T03:57:04.751Z,83.31
2023-02-11T03:59:32.032Z,82.46
2023-02-11T04:01:59.822Z,81.76
2023-02-11T04:04:27.430Z,82.56
2023-02-11T04:06:55.108Z,83.56
2023-02-11T04:09:22.811Z,83.46
2023-02-11T04:11:50.460Z,82.64
2023-02-11T04:14:18.791Z,83.60
2023-02-11T04:16:46.444Z,83.64
2023-02-11T04:19:13.733Z,83.18
2023-02-11T04:21:41.348Z,83.30
2023-02-11T04:24:08.800Z,83.32
2023-02-11T04:26:37.729Z,84.53
2023-02-11T04:29:05.794Z,83.90
2023-02-11T04:31:33.424Z,83.12
2023-02-11T04:34:02.065Z,83.45
2023-02-11T04:36:31.742Z,83.46
2023-02-11T04:38:59.743Z,83.14
2023-02-11T04:41:27.444Z,83.70
2023-02-11T04:43:54.881Z,83.55
2023-02-11T04:46:23.975Z,84.72
2023-02-11T04:48:51.898Z,84.45
2023-02-11T04:51:20.752Z,84.75
2023-02-11T04:53:51.082Z,83.33
2023-02-11T04:56:20.969Z,83.92
2023-02-11T04:58:52.434Z,84.80
2023-02-11T05:01:20.272Z,83.45
2023-02-11T05:03:48.988Z,82.93
2023-02-11T05:06:23.972Z,83.29
2023-02-11T05:09:02.729Z,82.70
2023-02-11T05:11:40.735Z,83.52
2023-02-11T05:14:08.712Z,84.33
2023-02-11T05:16:41.497Z,84.09
2023-02-11T05:19:15.583Z,84.90
2023-02-11T05:22:02.256Z,85.47
2023-02-11T05:24:35.098Z,84.85
2023-02-11T05:27:02.840Z,84.45
2023-02-11T05:29:30.325Z,84.16
2023-02-11T05:31:59.339Z,84.92
2023-02-11T05:34:26.564Z,84.71
2023-02-11T05:36:54.262Z,84.17
2023-02-11T05:39:23.055Z,84.37
2023-02-11T05:41:50.856Z,83.56
2023-02-11T05:44:18.485Z,84.00
2023-02-11T05:46:46.274Z,84.32
2023-02-11T05:49:14.221Z,84.15
2023-02-11T05:51:41.827Z,83.53
2023-02-11T05:54:09.371Z,83.37
2023-02-11T05:56:37.063Z,83.67
2023-02-11T05:59:04.385Z,81.97
2023-02-11T06:01:32.229Z,81.60
2023-02-11T06:03:59.790Z,81.79
2023-02-11T06:06:29.773Z,81.39
2023-02-11T06:08:57.537Z,82.50
2023-02-11T06:11:25.185Z,82.20
2023-02-11T06:13:52.488Z,82.67
2023-02-11T06:16:20.568Z,81.09
2023-02-11T06:18:48.226Z,81.80
2023-02-11T06:21:16.039Z,83.33
2023-02-11T06:23:45.206Z,82.23
2023-02-11T06:26:19.170Z,80.86
2023-02-11T06:28:47.812Z,81.03
2023-02-11T06:31:16.445Z,77.19
2023-02-11T06:33:44.248Z,72.57
2023-02-11T06:36:16.190Z,67.08
2023-02-11T06:38:44.233Z,62.43
2023-02-11T06:41:13.764Z,60.66
2023-02-11T06:43:41.797Z,56.46
2023-02-11T06:46:09.847Z,53.48
2023-02-11T06:48:40.116Z,50.78
2023-02-11T06:51:14.547Z,49.73
2023-02-11T06:53:45.315Z,48.36
2023-02-11T06:56:23.965Z,46.85
2023-02-11T06:58:56.061Z,46.21
2023-02-11T07:01:33.481Z,46.04
2023-02-11T07:04:03.781Z,45.66
2023-02-11T07:06:35.635Z,43.57
2023-02-11T07:09:06.876Z,43.15
2023-02-11T07:11:37.954Z,41.62
2023-02-11T07:14:14.835Z,42.20
2023-02-11T07:16:45.821Z,40.63
2023-02-11T07:19:20.406Z,41.51
2023-02-11T07:21:55.619Z,40.82
2023-02-11T07:24:25.909Z,41.18
2023-02-11T07:27:20.923Z,39.10
2023-02-11T07:29:51.094Z,39.87
2023-02-11T07:32:24.175Z,38.64
2023-02-11T07:34:55.990Z,39.33
2023-02-11T07:37:30.684Z,38.82
2023-02-11T07:40:05.645Z,37.84
2023-02-11T07:42:36.521Z,38.91
2023-02-11T07:45:14.359Z,37.76
2023-02-11T07:47:43.715Z,40.50
2023-02-11T07:50:17.803Z,39.16
2023-02-11T07:52:49.494Z,40.21
2023-02-11T07:55:24.247Z,40.96
2023-02-11T07:57:57.799Z,42.52
2023-02-11T08:00:38.724Z,40.81
2023-02-11T08:03:09.250Z,39.42
2023-02-11T08:05:42.157Z,41.11
2023-02-11T08:08:11.513Z,41.51
2023-02-11T08:10:51.923Z,39.56
2023-02-11T08:13:24.311Z,39.66
2023-02-11T08:15:59.378Z,40.61
2023-02-11T08:18:33.862Z,39.39
2023-02-11T08:21:12.598Z,38.00
2023-02-11T08:23:48.250Z,37.55
2023-02-11T08:26:35.717Z,36.34
2023-02-11T08:29:15.859Z,36.14
2023-02-11T08:31:54.918Z,36.63
2023-02-11T08:34:34.635Z,38.75
2023-02-11T08:37:03.809Z,36.55
2023-02-11T08:39:34.341Z,36.14
2023-02-11T08:42:07.410Z,36.73
2023-02-11T08:44:37.904Z,38.14
2023-02-11T08:47:09.308Z,36.21
2023-02-11T08:49:43.083Z,37.10
2023-02-11T08:52:12.041Z,37.68
2023-02-11T08:54:45.852Z,38.34
2023-02-11T08:57:14.401Z,37.93
2023-02-11T08:59:46.381Z,38.67
2023-02-11T09:02:24.602Z,37.20
2023-02-11T09:04:53.709Z,38.35
2023-02-11T09:07:31.627Z,38.37
2023-02-11T09:10:01.097Z,38.23
2023-02-11T09:12:36.425Z,40.54
2023-02-11T09:15:09.920Z,38.38
2023-02-11T09:17:43.011Z,41.76
2023-02-11T09:20:14.254Z,40.84
2023-02-11T09:22:46.772Z,40.22
2023-02-11T09:25:18.471Z,39.73
2023-02-11T09:27:53.480Z,40.69
2023-02-11T09:30:31.161Z,40.25
2023-02-11T09:33:11.763Z,41.05
2023-02-11T09:36:47.184Z,40.40
2023-02-11T09:48:15.288Z,41.60
2023-02-11T09:51:08.974Z,42.01
2023-02-11T09:53:51.719Z,41.04
2023-02-11T09:56:56.151Z,40.41
2023-02-11T09:59:38.359Z,39.60
2023-02-11T10:03:02.733Z,39.20
2023-02-11T10:06:06.867Z,42.53
2023-02-11T10:09:02.128Z,41.58
2023-02-11T10:12:26.182Z,38.93
2023-02-11T10:15:37.422Z,37.32
2023-02-11T10:18:22.115Z,38.44
2023-02-11T10:20:57.546Z,40.01
2023-02-11T10:23:31.770Z,42.24
2023-02-11T10:25:59.954Z,36.96
2023-02-11T10:28:34.383Z,41.33
2023-02-11T10:31:10.133Z,38.94
2023-02-11T10:33:49.500Z,38.79
2023-02-11T10:36:18.906Z,42.74
2023-02-11T10:38:46.539Z,41.52
2023-02-11T10:41:20.288Z,38.05
2023-02-11T10:44:07.874Z,37.86
2023-02-11T10:46:40.395Z,41.97
2023-02-11T10:49:08.200Z,37.23
2023-02-11T10:51:37.883Z,38.92
2023-02-11T10:54:05.651Z,41.67
2023-02-11T10:56:37.520Z,43.42
2023-02-11T10:59:14.710Z,42.22
2023-02-11T11:01:47.357Z,39.25
2023-02-11T11:04:34.936Z,40.23
2023-02-11T11:07:17.041Z,40.96
2023-02-11T11:10:00.531Z,38.60
2023-02-11T11:12:36.709Z,39.57
2023-02-11T11:15:10.537Z,39.66
2023-02-11T11:17:38.738Z,45.00
2023-02-11T11:20:21.660Z,38.64
2023-02-11T11:22:52.034Z,40.03
2023-02-11T11:25:29.847Z,40.40
2023-02-11T11:28:00.843Z,40.62
2023-02-11T11:30:42.003Z,39.97
2023-02-11T11:33:36.746Z,40.55
2023-02-11T11:36:15.246Z,42.00
2023-02-11T11:38:58.959Z,40.82
2023-02-11T11:41:32.923Z,40.08
2023-02-11T11:44:06.350Z,39.40
2023-02-11T11:46:42.323Z,38.83
2023-02-11T11:49:30.360Z,36.46
2023-02-11T11:52:01.172Z,35.58
2023-02-11T11:54:31.933Z,35.74
2023-02-11T11:57:15.337Z,34.18
2023-02-11T11:59:42.877Z,35.80
2023-02-11T12:02:10.611Z,39.41
2023-02-11T12:04:52.443Z,37.61
2023-02-11T12:07:20.511Z,36.56
2023-02-11T12:09:50.896Z,36.56
2023-02-11T12:12:33.632Z,38.62
2023-02-11T12:15:27.421Z,38.76
2023-02-11T12:18:13.223Z,34.82
2023-02-11T12:21:04.107Z,36.02
2023-02-11T12:23:44.758Z,36.60
2023-02-11T12:26:46.888Z,36.19
2023-02-11T12:29:50.742Z,37.69
2023-02-11T12:32:24.082Z,38.75
2023-02-11T12:35:04.037Z,39.36
2023-02-11T12:38:16.173Z,40.48
2023-02-11T12:41:19.772Z,39.56
2023-02-11T12:43:47.716Z,37.46
2023-02-11T12:46:35.262Z,37.46
2023-02-11T12:49:31.789Z,36.71
2023-02-11T12:52:33.555Z,37.47
2023-02-11T12:55:19.492Z,38.05
2023-02-11T12:57:50.700Z,38.00
2023-02-11T13:00:25.873Z,36.77
2023-02-11T13:03:01.733Z,38.62
2023-02-11T13:05:34.752Z,39.40
2023-02-11T13:08:09.842Z,39.74
2023-02-11T13:10:38.296Z,39.75
2023-02-11T13:13:35.646Z,37.51
2023-02-11T13:16:37.994Z,38.12
2023-02-11T13:19:27.591Z,37.31
2023-02-11T13:22:13.867Z,38.49
2023-02-11T13:24:48.167Z,38.45
2023-02-11T13:27:58.796Z,39.84
2023-02-11T13:30:34.874Z,38.55
2023-02-11T13:33:06.718Z,40.08
2023-02-11T13:35:39.349Z,38.70
2023-02-11T13:38:24.849Z,39.72
2023-02-11T13:41:04.173Z,41.62
2023-02-11T13:43:36.013Z,42.16
2023-02-11T13:46:12.066Z,38.31
2023-02-11T13:48:58.610Z,39.83
2023-02-11T13:51:39.303Z,38.34
2023-02-11T13:54:08.345Z,38.23
2023-02-11T13:56:44.248Z,38.02
2023-02-11T13:59:30.435Z,40.84
2023-02-11T14:02:40.295Z,40.50
2023-02-11T14:05:56.636Z,40.37
2023-02-11T14:08:44.024Z,40.83
2023-02-11T14:11:40.806Z,41.83
2023-02-11T14:14:22.028Z,41.85
2023-02-11T14:17:11.092Z,39.73
2023-02-11T14:19:40.289Z,39.47
2023-02-11T14:22:12.125Z,40.78
2023-02-11T14:25:03.308Z,39.25
2023-02-11T14:27:42.714Z,40.28
2023-02-11T14:30:43.878Z,43.15
2023-02-11T14:33:18.367Z,39.73
2023-02-11T14:36:00.408Z,43.01
2023-02-11T14:38:49.879Z,40.10
2023-02-11T14:41:26.852Z,41.07
2023-02-11T14:43:58.000Z,40.25
2023-02-11T14:46:30.095Z,43.94
2023-02-11T14:49:01.441Z,43.96
2023-02-11T14:51:36.289Z,44.00
2023-02-11T14:54:25.561Z,42.64
2023-02-11T14:57:17.444Z,45.65
2023-02-11T15:00:08.669Z,45.12
2023-02-11T15:02:39.007Z,47.76
2023-02-11T15:05:19.962Z,45.09
2023-02-11T15:07:54.061Z,45.75
2023-02-11T15:10:38.168Z,46.14
2023-02-11T15:13:08.040Z,47.82
2023-02-11T15:15:37.054Z,46.01
2023-02-11T15:18:06.710Z,49.10
2023-02-11T15:20:36.081Z,48.87
2023-02-11T15:23:09.607Z,48.57
2023-02-11T15:25:44.271Z,47.46
2023-02-11T15:28:22.763Z,47.13
2023-02-11T15:31:01.864Z,47.45
2023-02-11T15:33:32.147Z,49.42
2023-02-11T15:36:02.099Z,46.94
2023-02-11T15:38:31.131Z,48.80
2023-02-11T15:41:01.129Z,48.99
2023-02-11T15:43:45.823Z,51.51
2023-02-11T15:46:20.465Z,48.12
2023-02-11T15:48:55.628Z,51.68
2023-02-11T15:51:25.472Z,48.95
2023-02-11T15:53:57.144Z,50.09
2023-02-11T15:56:46.402Z,52.53
2023-02-11T15:59:26.165Z,51.55
2023-02-11T16:01:55.278Z,50.43
2023-02-11T16:04:27.896Z,51.16
2023-02-11T16:06:59.071Z,52.44
2023-02-11T16:09:36.933Z,49.42
2023-02-11T16:12:24.306Z,50.29
2023-02-11T16:14:52.154Z,52.64
2023-02-11T16:17:27.985Z,53.15
2023-02-11T16:19:56.035Z,51.95
2023-02-11T16:22:35.505Z,51.25
2023-02-11T16:25:03.523Z,50.95
2023-02-11T16:27:41.245Z,51.69
2023-02-11T16:30:33.259Z,53.49
2023-02-11T16:33:01.012Z,52.61
2023-02-11T16:35:28.728Z,52.24
2023-02-11T16:37:56.109Z,52.92
2023-02-11T16:40:25.581Z,53.13
2023-02-11T16:42:53.672Z,52.08
2023-02-11T16:45:21.746Z,53.03
2023-02-11T16:47:49.135Z,53.22
2023-02-11T16:50:24.813Z,53.66
2023-02-11T16:52:52.671Z,51.71
2023-02-11T16:55:22.074Z,52.67
2023-02-11T16:57:49.864Z,53.26
2023-02-11T17:00:18.366Z,52.62
2023-02-11T17:02:46.744Z,54.04
2023-02-11T17:05:23.122Z,54.06
2023-02-11T17:07:50.576Z,53.22
2023-02-11T17:10:21.772Z,53.16
2023-02-11T17:12:51.262Z,53.51
2023-02-11T17:15:18.888Z,52.99
2023-02-11T17:17:46.258Z,54.32
2023-02-11T17:20:15.890Z,55.21
2023-02-11T17:22:43.843Z,53.99
2023-02-11T17:25:11.935Z,54.28
2023-02-11T17:27:39.295Z,54.47
2023-02-11T17:30:07.602Z,54.82
2023-02-11T17:32:35.094Z,55.02
2023-02-11T17:35:03.882Z,55.43
2023-02-11T17:37:31.308Z,55.31
2023-02-11T17:39:59.865Z,54.63
2023-02-11T17:42:27.906Z,54.69
2023-02-11T17:44:55.727Z,56.12
2023-02-11T17:47:23.095Z,55.67
2023-02-11T17:49:50.762Z,55.48
2023-02-11T17:52:18.299Z,56.00
2023-02-11T17:54:46.103Z,57.04
2023-02-11T17:57:16.760Z,58.06
2023-02-11T17:59:44.595Z,58.48
2023-02-11T18:02:12.891Z,59.59
2023-02-11T18:04:41.072Z,60.15
2023-02-11T18:07:10.589Z,60.68
2023-02-11T18:09:44.419Z,60.86
2023-02-11T18:12:18.114Z,61.27
2023-02-11T18:14:48.613Z,60.63
2023-02-11T18:17:18.089Z,60.63
2023-02-11T18:19:50.257Z,60.88
2023-02-11T18:22:19.724Z,59.83
2023-02-11T18:24:55.844Z,59.81
2023-02-11T18:27:23.230Z,60.19
2023-02-11T18:29:52.678Z,61.04
2023-02-11T18:32:20.006Z,61.51
2023-02-11T18:34:51.195Z,62.78
2023-02-11T18:37:20.100Z,63.10
2023-02-11T18:39:48.139Z,63.03
2023-02-11T18:42:15.523Z,62.81
2023-02-11T18:44:44.933Z,64.13
2023-02-11T18:47:13.277Z,62.56
2023-02-11T18:49:40.878Z,62.95
2023-02-11T18:52:11.244Z,64.12
2023-02-11T18:54:38.946Z,64.36
2023-02-11T18:57:06.306Z,67.32
2023-02-11T18:59:34.806Z,64.39
2023-02-11T19:02:02.410Z,64.85
2023-02-11T19:04:30.633Z,63.64
2023-02-11T19:07:03.276Z,64.83
2023-02-11T19:09:31.088Z,65.88
2023-02-11T19:12:00.947Z,64.07
2023-02-11T19:14:34.511Z,63.98
2023-02-11T19:17:05.338Z,63.59
2023-02-11T19:19:35.233Z,63.77
2023-02-11T19:22:09.171Z,64.66
2023-02-11T19:24:38.436Z,63.79
2023-02-11T19:27:05.959Z,64.19
2023-02-11T19:29:35.406Z,64.35
2023-02-11T19:32:06.024Z,62.91
2023-02-11T19:34:41.328Z,62.30
2023-02-11T19:37:12.803Z,62.10
2023-02-11T19:39:42.465Z,62.34
2023-02-11T19:42:12.225Z,62.11
2023-02-11T19:44:43.790Z,62.15
2023-02-11T19:47:12.805Z,62.94
2023-02-11T19:49:41.460Z,61.94
2023-02-11T19:52:08.798Z,61.78
2023-02-11T19:54:38.563Z,61.29
2023-02-11T19:57:06.594Z,62.00
2023-02-11T19:59:34.292Z,60.01
2023-02-11T20:02:01.899Z,60.10
2023-02-11T20:04:32.316Z,59.94
2023-02-11T20:06:59.799Z,58.20
2023-02-11T20:09:30.159Z,59.51
2023-02-11T20:11:58.317Z,60.45
2023-02-11T20:14:28.003Z,60.03
2023-02-11T20:16:55.654Z,60.25
2023-02-11T20:19:23.385Z,61.25
2023-02-11T20:21:56.076Z,59.79
2023-02-11T20:24:26.055Z,58.56
2023-02-11T20:26:56.302Z,57.52
2023-02-11T20:29:25.000Z,58.99
2023-02-11T20:31:55.012Z,58.27
2023-02-11T20:34:23.878Z,60.31
2023-02-11T20:36:55.015Z,58.60
2023-02-11T20:39:24.546Z,59.01
2023-02-11T20:41:54.341Z,58.48
2023-02-11T20:44:22.916Z,56.49
2023-02-11T20:46:51.726Z,56.28
2023-02-11T20:49:21.976Z,56.00
2023-02-11T20:51:51.384Z,55.81
2023-02-11T20:54:21.110Z,56.63
2023-02-11T20:56:50.811Z,55.48
2023-02-11T20:59:23.560Z,54.82
2023-02-11T21:01:55.839Z,55.17
2023-02-11T21:04:26.945Z,55.71
2023-02-11T21:06:58.990Z,54.89
2023-02-11T21:09:30.015Z,55.11
2023-02-11T21:11:57.916Z,55.95
2023-02-11T21:14:27.809Z,55.71
2023-02-11T21:16:55.423Z,55.07
2023-02-11T21:19:23.365Z,57.81
2023-02-11T21:21:52.048Z,57.15
2023-02-11T21:24:19.931Z,58.29
2023-02-11T21:26:47.205Z,55.54
2023-02-11T21:29:14.784Z,55.43
2023-02-11T21:31:42.280Z,55.51
2023-02-11T21:34:11.341Z,56.20
2023-02-11T21:36:39.072Z,54.88
2023-02-11T21:39:07.070Z,56.00
2023-02-11T21:41:35.233Z,56.01
2023-02-11T21:44:03.371Z,56.92
2023-02-11T21:46:31.688Z,55.29
2023-02-11T21:49:00.550Z,57.09
2023-02-11T21:51:28.045Z,56.33
2023-02-11T21:54:03.120Z,55.55
2023-02-11T21:56:31.148Z,56.67
2023-02-11T21:59:00.182Z,56.31
2023-02-11T22:01:33.338Z,55.42
2023-02-11T22:04:01.614Z,55.58
2023-02-11T22:06:31.947Z,55.47
2023-02-11T22:09:03.175Z,57.02
2023-02-11T22:11:31.582Z,56.11
2023-02-11T22:14:00.011Z,58.49
2023-02-11T22:16:28.241Z,58.05
2023-02-11T22:18:59.725Z,56.76
2023-02-11T22:21:27.956Z,56.32
2023-02-11T22:23:56.244Z,58.26
2023-02-11T22:26:26.020Z,57.81
2023-02-11T22:28:55.015Z,58.04
2023-02-11T22:31:31.852Z,57.35
2023-02-11T22:34:00.888Z,57.07
2023-02-11T22:36:34.712Z,55.49
2023-02-11T22:39:08.711Z,57.21
2023-02-11T22:41:38.404Z,57.03
2023-02-11T22:44:06.474Z,57.22
2023-02-11T22:46:34.863Z,57.21
2023-02-11T22:49:02.518Z,56.85
2023-02-11T22:51:30.928Z,56.74
2023-02-11T22:54:01.288Z,56.53
2023-02-11T22:56:31.050Z,55.22
2023-02-11T22:59:05.366Z,55.85
2023-02-11T23:01:33.797Z,57.12
2023-02-11T23:04:03.514Z,56.74
2023-02-11T23:06:31.261Z,57.43
2023-02-11T23:08:59.125Z,56.52
2023-02-11T23:11:29.200Z,56.25
2023-02-11T23:13:57.381Z,57.05
2023-02-11T23:16:27.247Z,56.94
2023-02-11T23:18:56.390Z,55.78
2023-02-11T23:21:27.190Z,55.76
2023-02-11T23:24:07.240Z,56.79
2023-02-11T23:26:35.089Z,56.41
2023-02-11T23:29:02.738Z,57.48
2023-02-11T23:31:38.139Z,56.47
2023-02-11T23:34:07.404Z,57.30
2023-02-11T23:36:34.815Z,56.55
2023-02-11T23:39:03.465Z,56.43
2023-02-11T23:41:31.104Z,57.49
2023-02-11T23:44:18.892Z,56.44
2023-02-11T23:46:46.287Z,55.56
2023-02-11T23:49:15.648Z,55.79
2023-02-11T23:51:44.558Z,57.85
2023-02-11T23:54:13.661Z,54.92
2023-02-11T23:56:42.725Z,55.22
2023-02-11T23:59:11.813Z,57.47
